createdAt,value
2022-08-30T00:01:33.562Z,2.75
2022-08-30T00:06:36.196Z,3.15
2022-08-30T00:11:37.834Z,3.40
2022-08-30T00:16:39.394Z,2.45
2022-08-30T00:21:41.120Z,2.92
2022-08-30T00:26:42.676Z,3.08
2022-08-30T00:31:44.435Z,2.47
2022-08-30T00:36:46.085Z,2.65
2022-08-30T00:41:48.611Z,2.75
2022-08-30T00:46:50.200Z,3.03
2022-08-30T00:51:53.369Z,3.13
2022-08-30T00:56:55.496Z,3.35
2022-08-30T01:01:57.099Z,2.67
2022-08-30T01:07:00.353Z,2.70
2022-08-30T01:12:02.681Z,3.55
2022-08-30T01:17:05.687Z,2.63
2022-08-30T01:22:34.666Z,3.10
2022-08-30T01:27:43.375Z,2.65
2022-08-30T01:32:47.452Z,2.95
2022-08-30T01:37:49.504Z,2.90
2022-08-30T01:42:53.523Z,3.05
2022-08-30T01:47:55.135Z,2.75
2022-08-30T01:52:56.799Z,3.00
2022-08-30T01:57:58.376Z,3.08
2022-08-30T02:02:59.980Z,3.33
2022-08-30T02:08:01.612Z,3.05
2022-08-30T02:13:03.668Z,2.90
2022-08-30T02:18:05.269Z,3.20
2022-08-30T02:23:06.855Z,3.50
2022-08-30T02:28:08.582Z,3.08
2022-08-30T02:33:10.156Z,3.90
2022-08-30T02:38:11.814Z,4.30
2022-08-30T02:43:13.407Z,3.55
2022-08-30T02:48:15.641Z,4.53
2022-08-30T02:53:18.081Z,4.05
2022-08-30T02:58:19.755Z,3.67
2022-08-30T03:03:21.710Z,4.13
2022-08-30T03:08:23.813Z,4.40
2022-08-30T03:13:25.381Z,4.50
2022-08-30T03:18:26.974Z,4.95
2022-08-30T03:23:28.586Z,5.05
2022-08-30T03:28:30.136Z,5.13
2022-08-30T03:33:31.754Z,5.30
2022-08-30T03:38:33.362Z,4.53
2022-08-30T03:43:35.135Z,4.68
2022-08-30T03:48:36.972Z,5.03
2022-08-30T03:53:38.556Z,5.40
2022-08-30T03:58:40.637Z,5.57
2022-08-30T04:03:42.236Z,6.05
2022-08-30T04:08:45.964Z,5.70
2022-08-30T04:13:49.479Z,5.95
2022-08-30T04:18:51.199Z,5.18
2022-08-30T04:23:52.765Z,5.18
2022-08-30T04:28:57.556Z,5.90
2022-08-30T04:33:59.135Z,5.43
2022-08-30T04:39:00.694Z,5.40
2022-08-30T04:44:03.533Z,5.90
2022-08-30T04:49:05.561Z,6.35
2022-08-30T04:54:08.202Z,6.00
2022-08-30T04:59:10.123Z,6.47
2022-08-30T05:04:11.723Z,6.85
2022-08-30T05:09:13.316Z,6.18
2022-08-30T05:14:14.934Z,5.93
2022-08-30T05:19:16.492Z,5.85
2022-08-30T05:24:18.445Z,6.13
2022-08-30T05:29:20.623Z,5.78
2022-08-30T05:34:22.226Z,5.13
2022-08-30T05:39:23.930Z,4.70
2022-08-30T05:44:25.975Z,5.70
2022-08-30T05:49:27.668Z,5.35
2022-08-30T05:54:29.448Z,4.90
2022-08-30T05:59:31.217Z,4.82
2022-08-30T06:04:32.811Z,5.22
2022-08-30T06:09:34.397Z,5.00
2022-08-30T06:14:36.007Z,5.78
2022-08-30T06:19:37.582Z,5.55
2022-08-30T06:24:56.526Z,6.13
2022-08-30T06:29:58.899Z,5.03
2022-08-30T06:35:00.567Z,5.60
2022-08-30T06:40:03.744Z,6.10
2022-08-30T06:45:10.733Z,5.68
2022-08-30T06:50:14.228Z,5.75
2022-08-30T06:55:17.087Z,5.63
2022-08-30T07:00:19.007Z,5.68
2022-08-30T07:05:24.170Z,5.50
2022-08-30T07:10:25.722Z,5.40
2022-08-30T07:15:27.333Z,5.50
2022-08-30T07:20:39.933Z,4.90
2022-08-30T07:25:42.363Z,4.93
2022-08-30T07:30:44.254Z,4.78
2022-08-30T07:35:45.820Z,4.47
2022-08-30T07:40:47.490Z,4.90
2022-08-30T07:45:49.135Z,5.82
2022-08-30T07:50:53.713Z,5.05
2022-08-30T07:55:59.180Z,4.63
2022-08-30T08:01:01.996Z,4.43
2022-08-30T08:06:05.681Z,4.35
2022-08-30T08:11:32.864Z,4.90
2022-08-30T08:16:38.624Z,4.95
2022-08-30T08:21:40.297Z,4.72
2022-08-30T08:26:45.366Z,4.65
2022-08-30T08:31:47.252Z,4.50
2022-08-30T08:36:49.965Z,4.47
2022-08-30T08:42:00.831Z,4.70
2022-08-30T08:47:16.252Z,4.55
2022-08-30T08:52:48.496Z,4.68
2022-08-30T08:57:52.361Z,3.90
2022-08-30T09:02:58.914Z,3.90
2022-08-30T09:08:11.399Z,4.30
2022-08-30T09:13:13.950Z,4.28
2022-08-30T09:18:19.141Z,4.30
2022-08-30T09:23:24.315Z,3.90
2022-08-30T09:28:45.109Z,4.10
2022-08-30T09:33:54.623Z,4.30
2022-08-30T09:39:29.538Z,4.60
2022-08-30T09:44:37.976Z,4.32
2022-08-30T09:49:43.552Z,4.38
2022-08-30T09:54:52.453Z,4.05
2022-08-30T10:00:02.036Z,4.70
2022-08-30T10:05:13.156Z,3.85
2022-08-30T10:10:24.876Z,4.38
2022-08-30T10:15:39.361Z,4.40
2022-08-30T10:21:04.135Z,4.47
2022-08-30T10:26:14.056Z,4.60
2022-08-30T10:32:02.355Z,3.90
2022-08-30T10:37:14.833Z,3.90
2022-08-30T10:42:25.947Z,5.00
2022-08-30T10:48:12.122Z,4.60
2022-08-30T10:53:18.786Z,5.20
2022-08-30T10:58:21.004Z,4.35
2022-08-30T11:03:31.588Z,4.55
2022-08-30T11:09:10.696Z,4.70
2022-08-30T11:14:17.554Z,5.00
2022-08-30T11:19:32.080Z,4.40
2022-08-30T11:25:00.378Z,4.68
2022-08-30T11:30:26.684Z,5.07
2022-08-30T11:35:49.796Z,4.35
2022-08-30T11:40:54.111Z,4.25
2022-08-30T11:46:14.976Z,4.63
2022-08-30T11:51:40.553Z,4.85
2022-08-30T11:56:54.450Z,5.73
2022-08-30T12:01:56.680Z,5.75
2022-08-30T12:07:04.358Z,4.47
2022-08-30T12:12:37.732Z,4.70
2022-08-30T12:18:03.997Z,4.70
2022-08-30T12:23:44.583Z,4.70
2022-08-30T12:28:49.091Z,4.80
2022-08-30T12:34:00.788Z,4.60
2022-08-30T12:39:24.833Z,4.38
2022-08-30T12:44:28.129Z,4.65
2022-08-30T12:49:33.957Z,4.65
2022-08-30T12:54:40.035Z,4.40
2022-08-30T12:59:58.106Z,4.90
2022-08-30T13:05:48.072Z,4.45
2022-08-30T13:11:30.566Z,4.20
2022-08-30T13:16:38.863Z,4.30
2022-08-30T13:21:55.373Z,4.43
2022-08-30T13:27:03.506Z,4.10
2022-08-30T13:32:05.307Z,4.45
2022-08-30T13:37:44.093Z,4.15
2022-08-30T13:42:32.743Z,4.50
2022-08-30T13:47:35.622Z,4.80
2022-08-30T13:52:39.427Z,4.00
2022-08-30T13:57:57.661Z,4.10
2022-08-30T14:03:00.048Z,4.13
2022-08-30T14:08:02.089Z,4.40
2022-08-30T14:13:08.919Z,4.97
2022-08-30T14:18:20.568Z,4.78
2022-08-30T14:23:25.847Z,4.32
2022-08-30T14:28:29.878Z,4.63
2022-08-30T14:33:32.171Z,4.15
2022-08-30T14:38:33.805Z,4.93
2022-08-30T14:43:45.191Z,4.18
2022-08-30T14:55:45.635Z,4.70
2022-08-30T15:00:52.217Z,4.65
2022-08-30T15:05:53.931Z,4.50
2022-08-30T15:10:55.879Z,4.18
2022-08-30T15:15:57.569Z,5.13
2022-08-30T15:20:59.233Z,4.50
2022-08-30T15:26:03.563Z,4.50
2022-08-30T15:31:09.058Z,4.45
2022-08-30T15:36:12.478Z,3.70
2022-08-30T15:41:15.446Z,3.80
2022-08-30T15:46:20.052Z,3.63
2022-08-30T15:51:23.089Z,4.18
2022-08-30T15:56:25.906Z,3.75
2022-08-30T16:01:30.769Z,4.13
2022-08-30T16:06:37.611Z,3.97
2022-08-30T16:11:39.486Z,4.35
2022-08-30T16:16:41.985Z,3.90
2022-08-30T16:21:44.154Z,4.40
2022-08-30T16:26:46.683Z,4.22
2022-08-30T16:31:49.182Z,4.00
2022-08-30T16:36:51.061Z,3.80
2022-08-30T16:41:53.081Z,4.07
2022-08-30T16:46:54.830Z,4.03
2022-08-30T16:51:56.822Z,3.88
2022-08-30T16:56:58.514Z,3.67
2022-08-30T17:02:00.323Z,4.18
2022-08-30T17:07:02.017Z,3.40
2022-08-30T17:12:04.597Z,4.30
2022-08-30T17:17:06.300Z,3.50
2022-08-30T17:22:09.823Z,3.70
2022-08-30T17:27:12.837Z,4.32
2022-08-30T17:32:14.557Z,4.13
2022-08-30T17:37:17.977Z,3.70
2022-08-30T17:42:20.006Z,3.88
2022-08-30T17:47:22.188Z,3.45
2022-08-30T17:52:27.026Z,3.72
2022-08-30T17:57:28.864Z,3.80
2022-08-30T18:02:31.576Z,4.32
2022-08-30T18:07:33.667Z,3.90
2022-08-30T18:12:35.382Z,3.47
2022-08-30T18:18:33.724Z,4.00
2022-08-30T18:23:35.526Z,3.45
2022-08-30T18:28:37.179Z,4.15
2022-08-30T18:33:38.729Z,3.78
2022-08-30T18:38:42.423Z,3.75
2022-08-30T18:43:44.801Z,4.10
2022-08-30T18:48:47.578Z,3.75
2022-08-30T18:53:49.476Z,3.33
2022-08-30T18:58:51.122Z,3.95
2022-08-30T19:03:52.675Z,3.92
2022-08-30T19:08:54.315Z,4.90
2022-08-30T19:13:55.851Z,3.55
2022-08-30T19:18:57.422Z,3.60
2022-08-30T19:23:59.169Z,3.45
2022-08-30T19:29:01.767Z,3.40
2022-08-30T19:34:03.995Z,3.60
2022-08-30T19:39:05.770Z,3.95
2022-08-30T19:44:07.682Z,3.45
2022-08-30T19:49:11.221Z,3.53
2022-08-30T19:54:12.799Z,3.75
2022-08-30T19:59:14.367Z,3.75
2022-08-30T20:04:16.018Z,3.97
2022-08-30T20:09:22.173Z,3.80
2022-08-30T20:14:23.890Z,4.22
2022-08-30T20:19:27.563Z,3.67
2022-08-30T20:24:31.010Z,3.35
2022-08-30T20:29:34.399Z,3.08
2022-08-30T20:34:36.310Z,3.13
2022-08-30T20:39:38.284Z,3.65
2022-08-30T20:44:40.095Z,3.75
2022-08-30T20:49:41.634Z,3.42
2022-08-30T20:54:44.893Z,3.97
2022-08-30T20:59:46.426Z,3.33
2022-08-30T21:04:48.447Z,3.45
2022-08-30T21:09:50.360Z,3.90
2022-08-30T21:14:52.442Z,3.80
2022-08-30T21:19:55.275Z,4.20
2022-08-30T21:24:56.843Z,3.58
2022-08-30T21:29:58.758Z,3.75
2022-08-30T21:35:18.869Z,3.65
2022-08-30T21:40:21.021Z,3.83
2022-08-30T21:45:22.919Z,3.80
2022-08-30T21:50:24.474Z,3.97
2022-08-30T21:55:26.160Z,3.67
2022-08-30T22:00:27.746Z,3.50
2022-08-30T22:05:29.408Z,4.25
2022-08-30T22:10:33.228Z,4.32
2022-08-30T22:15:35.082Z,3.60
2022-08-30T22:20:36.690Z,3.75
2022-08-30T22:25:38.230Z,4.10
2022-08-30T22:30:39.833Z,3.60
2022-08-30T22:35:42.515Z,4.10
2022-08-30T22:40:46.090Z,3.90
2022-08-30T22:45:47.974Z,4.40
2022-08-30T22:50:49.577Z,5.78
2022-08-30T22:55:51.143Z,6.60
2022-08-30T23:00:55.348Z,8.27
2022-08-30T23:05:57.528Z,8.02
2022-08-30T23:11:01.471Z,8.45
2022-08-30T23:16:07.614Z,8.70
2022-08-30T23:21:20.458Z,9.70
2022-08-30T23:26:42.010Z,9.55
2022-08-30T23:32:02.333Z,10.35
2022-08-30T23:37:22.661Z,11.25
2022-08-30T23:42:42.602Z,9.82
2022-08-30T23:48:03.416Z,9.88
2022-08-30T23:53:23.951Z,9.23
2022-08-30T23:58:44.138Z,10.73
